Time;durP1;ratioP1;P1;durP2;ratioP2;P2;SDS_P1;SDS_P2;PMS_P1;PMS_P2;Temp;Humidity;BMP_temperature;BMP_pressure;BME280_temperature;BME280_humidity;BME280_pressure;Samples;Min_cycle;Max_cycle;Signal;HPM_P1;HPM_P2
2023/05/12 04:09:22;;;;;;;5.90;4.57;;;;;;;14.24;92.42;100625.41;5607673;31;79334;-57
2023/05/12 04:12:25;;;;;;;6.15;4.37;;;;;;;14.24;92.42;100625.41;5583587;31;33323;-57
2023/05/12 04:15:28;;;;;;;6.78;4.20;;;;;;;13.78;95.36;100623.53;5583290;31;34386;-57
2023/05/12 04:18:30;;;;;;;6.95;4.70;;;;;;;13.73;91.03;100623.59;5583527;32;34380;-57
2023/05/12 04:21:34;;;;;;;6.80;4.50;;;;;;;13.85;95.26;100632.81;5583874;31;33036;-57
2023/05/12 04:24:37;;;;;;;5.00;4.28;;;;;;;13.84;92.71;100636.63;5583549;31;34281;-58
2023/05/12 04:27:39;;;;;;;6.45;4.53;;;;;;;13.97;89.17;100631.53;5583323;31;34274;-58
2023/05/12 04:30:42;;;;;;;6.53;4.37;;;;;;;13.97;92.02;100631.53;5593164;31;34163;-58
2023/05/12 04:33:44;;;;;;;5.35;4.20;;;;;;;13.89;89.42;100640.31;5595785;31;33709;-58
2023/05/12 04:36:50;;;;;;;6.22;4.22;;;;;;;13.97;89.23;100635.06;5583440;31;33227;-58
2023/05/12 04:39:53;;;;;;;8.13;4.15;;;;;;;14.01;89.16;100643.34;5587089;31;33544;-58
2023/05/12 04:42:55;;;;;;;7.22;4.75;;;;;;;13.88;91.31;100646.81;5602167;31;33333;-58
2023/05/12 04:46:00;;;;;;;7.07;4.50;;;;;;;13.86;91.67;100636.31;5603234;31;33655;-57
2023/05/12 04:49:03;;;;;;;6.65;4.68;;;;;;;13.95;92.87;100631.84;5602816;31;33606;-58
2023/05/12 04:52:06;;;;;;;5.15;4.30;;;;;;;13.94;92.71;100629.44;5602792;31;33684;-58
2023/05/12 04:55:08;;;;;;;5.12;3.72;;;;;;;13.99;94.21;100634.75;5599710;31;33262;-58
2023/05/12 04:58:14;;;;;;;7.28;4.43;;;;;;;14.09;89.93;100629.97;5601483;31;34636;-58
2023/05/12 05:01:17;;;;;;;8.38;4.22;;;;;;;14.08;88.54;100638.38;5602876;31;33454;-58
2023/05/12 05:04:19;;;;;;;7.22;4.20;;;;;;;14.07;92.05;100640.28;5602578;31;33790;-57
2023/05/12 05:07:22;;;;;;;5.45;4.03;;;;;;;14.05;92.05;100641.66;5602568;31;33677;-57
2023/05/12 05:10:24;;;;;;;5.00;4.03;;;;;;;13.95;90.55;100645.31;5602733;31;33709;-61
2023/05/12 05:13:27;;;;;;;4.53;3.65;;;;;;;13.97;97.22;100648.53;5602693;31;33531;-57
2023/05/12 05:16:29;;;;;;;5.82;3.95;;;;;;;14.08;93.52;100651.84;5602338;31;34355;-58
2023/05/12 05:19:31;;;;;;;6.75;4.28;;;;;;;14.02;93.08;100650.34;5593697;31;34331;-57
2023/05/12 05:22:53;;;;;;;5.72;3.97;;;;;;;14.09;90.56;100640.75;5589653;31;33426;-58
2023/05/12 05:25:55;;;;;;;5.93;4.30;;;;;;;14.04;95.31;100640.06;5581550;31;34347;-57
2023/05/12 05:28:58;;;;;;;4.80;3.90;;;;;;;14.01;93.25;100637.97;5569973;31;33479;-57
2023/05/12 05:32:00;;;;;;;7.03;4.10;;;;;;;14.15;92.64;100644.16;5570001;32;33625;-57
2023/05/12 05:35:03;;;;;;;5.95;4.40;;;;;;;14.18;88.52;100651.66;5569805;31;34754;-57
2023/05/12 05:38:06;;;;;;;7.10;4.72;;;;;;;14.10;90.21;100639.69;5569781;32;34851;-58
2023/05/12 05:41:08;;;;;;;9.05;5.20;;;;;;;14.03;91.59;100652.72;5570107;32;33704;-57
2023/05/12 05:44:11;;;;;;;8.68;4.72;;;;;;;14.10;89.47;100655.03;5569465;32;32577;-57
2023/05/12 05:47:13;;;;;;;8.18;5.15;;;;;;;14.15;91.86;100659.53;5583310;31;33488;-57
2023/05/12 05:50:16;;;;;;;8.30;4.65;;;;;;;14.12;92.82;100652.06;5588337;31;33328;-57
2023/05/12 05:53:19;;;;;;;6.30;4.97;;;;;;;14.12;90.35;100660.13;5572624;31;33696;-58
2023/05/12 05:56:22;;;;;;;7.57;5.45;;;;;;;14.07;92.92;100659.12;5578603;31;33617;-57
2023/05/12 05:59:24;;;;;;;6.80;4.75;;;;;;;14.08;92.62;100655.34;5581277;31;32709;-58
2023/05/12 06:02:27;;;;;;;7.22;5.37;;;;;;;14.18;92.66;100664.34;5571409;31;33025;-58
2023/05/12 06:05:29;;;;;;;9.02;5.32;;;;;;;14.15;89.78;100663.03;5576328;31;34264;-57
2023/05/12 06:08:32;;;;;;;7.07;4.72;;;;;;;14.12;91.33;100668.22;5571910;31;33572;-57
2023/05/12 06:11:34;;;;;;;8.45;4.95;;;;;;;14.13;91.74;100665.22;5579822;31;33597;-57
2023/05/12 06:14:36;;;;;;;5.65;4.87;;;;;;;13.99;91.03;100667.87;5588628;31;33844;-58
2023/05/12 06:17:40;;;;;;;8.77;4.80;;;;;;;14.01;91.81;100667.59;5588279;31;34505;-59
2023/05/12 06:20:43;;;;;;;7.50;4.95;;;;;;;14.02;90.31;100669.19;5582168;31;34342;-58
2023/05/12 06:23:45;;;;;;;9.68;5.55;;;;;;;13.99;91.28;100664.41;5588738;31;34402;-59
2023/05/12 06:26:48;;;;;;;6.10;5.35;;;;;;;14.00;92.94;100660.59;5586478;31;33982;-59
2023/05/12 06:29:50;;;;;;;9.57;5.32;;;;;;;14.09;93.14;100672.31;5576487;31;33782;-59
2023/05/12 06:32:53;;;;;;;7.30;5.68;;;;;;;14.04;93.96;100669.72;5579366;31;33564;-59
2023/05/12 06:35:56;;;;;;;8.55;5.20;;;;;;;14.09;94.98;100672.31;5586283;31;34322;-59
2023/05/12 06:38:59;;;;;;;11.63;5.50;;;;;;;14.09;93.22;100670.41;5586319;31;33790;-59
2023/05/12 06:42:02;;;;;;;8.15;5.53;;;;;;;14.31;92.93;100675.16;5574007;31;33678;-59
2023/05/12 06:45:11;;;;;;;6.82;5.25;;;;;;;14.19;93.89;100672.13;5588364;31;33375;-59
2023/05/12 06:48:14;;;;;;;8.25;5.43;;;;;;;14.20;94.55;100670.22;5588099;31;33703;-59
2023/05/12 06:51:16;;;;;;;7.35;5.18;;;;;;;14.19;94.05;100666.72;5587618;31;33675;-59
2023/05/12 06:54:19;;;;;;;8.25;5.95;;;;;;;14.19;93.70;100669.44;5584078;31;33535;-58
2023/05/12 06:57:21;;;;;;;5.87;5.22;;;;;;;14.26;90.48;100667.13;5581508;31;33050;-59
2023/05/12 07:00:24;;;;;;;7.75;6.10;;;;;;;14.26;92.74;100672.53;5579978;31;33859;-56
2023/05/12 07:03:31;;;;;;;7.32;5.90;;;;;;;14.31;91.88;100668.97;5586488;31;33628;-56
2023/05/12 07:06:33;;;;;;;6.25;5.65;;;;;;;14.35;92.86;100667.25;5580132;31;34384;-56
2023/05/12 07:09:36;;;;;;;7.43;6.03;;;;;;;14.30;92.76;100665.47;5568092;32;33765;-56
2023/05/12 07:12:38;;;;;;;8.70;6.10;;;;;;;14.43;94.75;100671.94;5569024;32;33681;-56
2023/05/12 07:15:40;;;;;;;9.48;6.50;;;;;;;14.33;95.74;100672.13;5568602;32;33648;-56
2023/05/12 07:18:44;;;;;;;6.53;5.62;;;;;;;14.42;94.82;100677.66;5568988;32;34351;-56
2023/05/12 07:21:46;;;;;;;6.95;5.40;;;;;;;14.34;94.96;100671.88;5568494;32;33665;-56
2023/05/12 07:24:49;;;;;;;8.45;5.80;;;;;;;14.41;88.26;100663.38;5569815;31;33595;-56
2023/05/12 07:27:51;;;;;;;9.55;5.75;;;;;;;14.64;91.14;100677.00;5569552;31;34433;-56
2023/05/12 07:30:54;;;;;;;7.15;6.05;;;;;;;14.62;100.00;100669.19;5568424;32;33653;-56
2023/05/12 07:33:56;;;;;;;7.20;5.95;;;;;;;14.61;99.59;100669.50;5568440;32;34345;-56
2023/05/12 07:37:01;;;;;;;10.10;5.85;;;;;;;14.60;95.13;100667.91;5571131;31;34281;-56
2023/05/12 07:40:03;;;;;;;8.80;5.28;;;;;;;14.60;87.54;100668.69;5575632;31;34411;-56
2023/05/12 07:43:06;;;;;;;7.68;5.62;;;;;;;14.57;94.76;100664.72;5585718;31;33641;-57
2023/05/12 07:46:09;;;;;;;8.27;5.35;;;;;;;14.53;90.97;100663.69;5583180;31;34129;-56
2023/05/12 07:49:12;;;;;;;7.85;5.95;;;;;;;14.59;92.89;100666.31;5568433;32;33633;-57
2023/05/12 07:52:15;;;;;;;9.25;6.28;;;;;;;14.63;90.32;100665.41;5574233;31;33237;-56
2023/05/12 07:55:19;;;;;;;7.53;5.95;;;;;;;14.53;94.74;100671.00;5569529;31;34302;-57
2023/05/12 07:58:22;;;;;;;7.10;5.82;;;;;;;14.64;88.90;100677.00;5583561;31;34288;-57
2023/05/12 08:01:24;;;;;;;10.57;5.65;;;;;;;14.72;88.15;100670.91;5582915;31;33905;-57
2023/05/12 08:04:27;;;;;;;7.60;5.68;;;;;;;14.62;85.12;100671.91;5577279;31;34277;-57
2023/05/12 08:07:29;;;;;;;6.18;5.25;;;;;;;14.64;88.15;100675.09;5567274;32;33712;-57
2023/05/12 08:10:32;;;;;;;7.03;5.18;;;;;;;14.68;87.18;100684.19;5567831;32;33542;-57
2023/05/12 08:13:38;;;;;;;6.47;5.25;;;;;;;14.65;87.98;100678.59;5567822;32;33976;-57
2023/05/12 08:16:44;;;;;;;8.10;5.55;;;;;;;14.65;87.01;100687.50;5579775;31;33553;-57
2023/05/12 08:19:46;;;;;;;8.30;5.05;;;;;;;14.60;92.69;100676.78;5587426;31;33630;-57
2023/05/12 08:22:49;;;;;;;7.65;5.82;;;;;;;14.73;84.61;100678.69;5586683;31;33502;-57
2023/05/12 08:25:51;;;;;;;6.62;5.37;;;;;;;15.00;90.47;100679.78;5586503;31;33599;-57
2023/05/12 08:28:54;;;;;;;6.62;5.12;;;;;;;14.86;86.94;100673.59;5574188;31;34276;-57
2023/05/12 08:31:57;;;;;;;6.72;4.80;;;;;;;14.71;81.07;100689.00;5567619;32;33706;-57
2023/05/12 08:35:00;;;;;;;7.22;5.03;;;;;;;14.64;86.04;100688.59;5567751;32;34241;-57
2023/05/12 08:38:02;;;;;;;7.57;4.93;;;;;;;14.80;83.49;100683.69;5567374;32;33730;-57
2023/05/12 08:41:14;;;;;;;7.97;5.07;;;;;;;14.79;82.65;100684.78;5581168;31;33690;-55
2023/05/12 08:44:18;;;;;;;8.80;4.87;;;;;;;14.92;84.63;100689.38;5586227;31;33910;-55
2023/05/12 08:47:21;;;;;;;8.57;5.53;;;;;;;14.92;81.63;100694.78;5585709;31;33643;-54
2023/05/12 08:50:25;;;;;;;9.10;5.85;;;;;;;14.84;86.44;100698.19;5585766;31;33131;-54
2023/05/12 08:53:28;;;;;;;6.15;5.28;;;;;;;14.86;89.62;100695.97;5586547;31;33572;-55
2023/05/12 08:56:31;;;;;;;6.60;4.95;;;;;;;14.88;90.96;100699.19;5587686;31;33728;-55
2023/05/12 08:59:38;;;;;;;;;;;;;;;15.03;83.59;100688.06;5586067;31;33590;-56
2023/05/12 09:02:41;;;;;;;9.68;4.80;;;;;;;15.07;83.45;100692.88;5588655;31;34009;-55
2023/05/12 09:05:59;;;;;;;7.57;5.20;;;;;;;15.02;79.35;100696.47;5585228;31;33670;-55
2023/05/12 09:09:02;;;;;;;;;;;;;;;15.00;82.65;100699.47;5589215;31;34500;-55
2023/05/12 09:12:10;;;;;;;8.15;5.35;;;;;;;14.85;84.52;100705.19;5589005;31;34059;-54
2023/05/12 09:15:18;;;;;;;7.22;5.43;;;;;;;14.87;84.24;100703.00;5573911;31;33650;-54
2023/05/12 09:18:21;;;;;;;7.80;5.62;;;;;;;14.89;91.79;100714.28;5577075;31;33720;-55
2023/05/12 09:21:25;;;;;;;8.48;6.78;;;;;;;14.76;88.93;100720.47;5586350;31;33677;-55
2023/05/12 09:24:38;;;;;;;6.28;5.65;;;;;;;14.83;90.43;100720.06;5570821;31;34344;-55
2023/05/12 09:27:40;;;;;;;12.32;5.45;;;;;;;14.84;93.36;100721.69;5578422;31;34223;-55
2023/05/12 09:30:42;;;;;;;7.90;5.62;;;;;;;14.88;87.71;100723.47;5580993;31;33197;-55
2023/05/12 09:33:44;;;;;;;7.60;5.07;;;;;;;15.02;86.81;100721.56;5579020;31;33844;-55
2023/05/12 09:37:02;;;;;;;7.93;5.32;;;;;;;15.07;97.11;100736.88;5583139;31;34395;-55
2023/05/12 09:40:07;;;;;;;7.85;6.10;;;;;;;14.89;84.35;100748.56;5570357;31;33677;-55
2023/05/12 09:43:10;;;;;;;8.70;5.68;;;;;;;14.76;91.22;100748.25;5574670;31;34362;-55
2023/05/12 09:46:15;;;;;;;6.97;5.90;;;;;;;14.52;90.28;100745.72;5580264;31;33927;-55
2023/05/12 09:49:25;;;;;;;9.52;6.40;;;;;;;14.65;87.83;100746.06;5575187;31;33290;-55
2023/05/12 09:52:31;;;;;;;7.60;6.20;;;;;;;14.51;89.03;100749.53;5585444;31;33645;-55
2023/05/12 09:55:34;;;;;;;9.75;6.62;;;;;;;14.50;93.80;100747.09;5581343;31;32349;-55
2023/05/12 09:58:42;;;;;;;8.65;6.55;;;;;;;14.49;87.25;100753.59;5584269;31;34229;-55
2023/05/12 10:01:44;;;;;;;11.18;6.68;;;;;;;14.30;90.30;100750.94;5587743;31;33722;-55
2023/05/12 10:04:56;;;;;;;12.85;7.28;;;;;;;14.18;89.47;100735.25;5573354;31;33473;-55
2023/05/12 10:08:01;;;;;;;8.10;7.07;;;;;;;14.22;96.77;100746.25;5573519;31;33487;-55
2023/05/12 10:11:05;;;;;;;11.40;8.00;;;;;;;14.36;95.29;100752.47;5584833;31;33636;-56
2023/05/12 10:14:08;;;;;;;10.55;7.50;;;;;;;14.36;94.96;100746.28;5577797;31;33308;-55
2023/05/12 10:17:11;;;;;;;11.65;7.72;;;;;;;14.30;94.13;100740.16;5580093;31;34354;-55
2023/05/12 10:20:17;;;;;;;8.57;7.33;;;;;;;14.27;97.09;100743.44;5588801;31;33801;-55
2023/05/12 10:23:20;;;;;;;9.27;7.07;;;;;;;14.28;95.60;100748.56;5579823;31;33519;-56
2023/05/12 10:26:23;;;;;;;9.13;7.80;;;;;;;14.28;94.71;100739.66;5582284;31;33862;-55
2023/05/12 10:29:29;;;;;;;9.88;7.75;;;;;;;14.25;94.96;100737.56;5577910;31;32356;-56
2023/05/12 10:32:32;;;;;;;11.12;7.70;;;;;;;14.28;94.70;100736.97;5576703;31;33648;-55
2023/05/12 10:35:35;;;;;;;11.50;7.55;;;;;;;14.16;94.10;100739.31;5582321;31;34361;-55
2023/05/12 10:38:40;;;;;;;13.65;8.25;;;;;;;14.04;93.57;100740.59;5587095;31;33624;-55
2023/05/12 10:41:42;;;;;;;10.35;8.10;;;;;;;14.01;94.84;100746.56;5582364;31;33713;-55
2023/05/12 10:44:52;;;;;;;9.77;8.13;;;;;;;13.97;94.56;100747.44;5582256;31;33361;-56
2023/05/12 10:48:06;;;;;;;11.88;8.18;;;;;;;13.97;95.24;100739.34;5585243;31;33242;-56
2023/05/12 10:51:10;;;;;;;9.32;8.15;;;;;;;14.10;94.82;100747.50;5588199;31;33701;-56
2023/05/12 10:54:20;;;;;;;10.25;8.20;;;;;;;14.18;94.37;100748.72;5587629;31;34418;-55
2023/05/12 10:57:22;;;;;;;10.55;8.07;;;;;;;14.33;94.96;100755.75;5575650;31;33716;-55
2023/05/12 11:00:27;;;;;;;8.68;7.55;;;;;;;14.36;90.80;100746.28;5567038;31;34272;-56
2023/05/12 11:03:32;;;;;;;11.60;8.18;;;;;;;14.47;94.98;100759.28;5574006;31;33703;-56
2023/05/12 11:06:38;;;;;;;9.52;7.90;;;;;;;14.40;93.91;100756.16;5585881;31;33594;-55
2023/05/12 11:09:43;;;;;;;9.18;8.15;;;;;;;14.24;92.42;100752.94;5573957;31;33714;-55
2023/05/12 11:13:01;;;;;;;10.43;8.98;;;;;;;14.33;91.73;100748.44;5580847;31;33571;-55
2023/05/12 11:16:04;;;;;;;10.43;8.07;;;;;;;14.32;94.07;100746.84;5580619;31;34435;-55
2023/05/12 11:19:06;;;;;;;10.00;8.15;;;;;;;14.21;91.01;100744.66;5588037;31;33774;-55
2023/05/12 11:22:10;;;;;;;9.95;8.75;;;;;;;14.34;97.80;100747.38;5577475;31;34326;-55
2023/05/12 11:25:13;;;;;;;11.18;7.80;;;;;;;14.15;91.94;100745.81;5577819;31;34292;-55
2023/05/12 11:28:15;;;;;;;8.63;7.80;;;;;;;14.20;96.87;100753.81;5578202;31;34014;-55
2023/05/12 11:31:19;;;;;;;11.02;7.97;;;;;;;14.28;95.59;100745.84;5582129;31;33638;-55
2023/05/12 11:34:22;;;;;;;8.23;7.43;;;;;;;14.39;93.99;100749.16;5571547;31;34374;-55
2023/05/12 11:37:25;;;;;;;8.48;7.57;;;;;;;14.24;89.25;100749.44;5587641;31;33696;-56
2023/05/12 11:40:27;;;;;;;8.32;7.35;;;;;;;14.31;92.29;100745.28;5580184;31;33698;-55
2023/05/12 11:43:30;;;;;;;8.45;6.87;;;;;;;14.38;93.45;100744.09;5580387;31;33354;-55
2023/05/12 11:46:32;;;;;;;10.18;7.65;;;;;;;14.19;94.47;100747.62;5576470;31;34494;-55
2023/05/12 11:49:45;;;;;;;8.80;7.90;;;;;;;14.24;97.04;100744.06;5582650;31;33607;-56
2023/05/12 11:52:47;;;;;;;8.93;7.10;;;;;;;14.28;96.72;100743.16;5577561;31;33755;-55
2023/05/12 11:55:52;;;;;;;10.40;7.97;;;;;;;14.46;100.00;100752.28;5579137;31;34390;-55
2023/05/12 11:58:56;;;;;;;10.02;8.02;;;;;;;14.32;91.98;100744.16;5573851;31;33723;-55
2023/05/12 12:02:00;;;;;;;10.75;7.87;;;;;;;14.37;93.37;100743.28;5576960;31;34461;-55
2023/05/12 12:05:03;;;;;;;8.95;7.37;;;;;;;14.30;95.73;100748.25;5583088;31;33561;-56
2023/05/12 12:08:15;;;;;;;8.82;7.80;;;;;;;14.41;93.81;100751.59;5571526;31;34427;-55
2023/05/12 12:11:18;;;;;;;9.70;8.00;;;;;;;14.42;93.75;100747.78;5573346;31;34569;-56
2023/05/12 12:14:21;;;;;;;8.50;7.18;;;;;;;14.33;92.06;100753.06;5567986;32;33651;-55
2023/05/12 12:17:29;;;;;;;10.35;8.35;;;;;;;14.26;89.54;100752.63;5566621;32;33652;-55
2023/05/12 12:20:31;;;;;;;9.88;7.72;;;;;;;14.29;92.32;100754.75;5567627;32;33936;-56
2023/05/12 12:23:34;;;;;;;8.65;7.40;;;;;;;14.14;90.92;100754.97;5568101;32;33699;-55
2023/05/12 12:26:51;;;;;;;10.20;7.80;;;;;;;14.27;92.37;100756.94;5567857;32;34369;-55
2023/05/12 12:29:54;;;;;;;9.63;7.75;;;;;;;14.23;91.16;100753.22;5569113;32;33656;-55
2023/05/12 12:32:56;;;;;;;8.57;7.30;;;;;;;14.14;93.83;100763.91;5570515;32;34382;-56
2023/05/12 12:35:58;;;;;;;8.57;7.20;;;;;;;14.18;91.54;100762.22;5569400;32;33763;-55
2023/05/12 12:39:01;;;;;;;8.25;6.78;;;;;;;14.14;91.41;100760.38;5569407;32;33713;-55
2023/05/12 12:42:04;;;;;;;9.95;6.72;;;;;;;14.32;95.83;100763.03;5570143;32;33578;-55
2023/05/12 12:45:07;;;;;;;8.70;7.03;;;;;;;14.40;91.86;100771.53;5570245;32;33280;-55
2023/05/12 12:48:10;;;;;;;8.02;6.82;;;;;;;14.40;93.46;100772.34;5570110;32;34341;-55
2023/05/12 12:51:13;;;;;;;8.00;6.90;;;;;;;14.30;93.41;100767.94;5570487;32;33764;-55
2023/05/12 12:54:15;;;;;;;8.88;6.82;;;;;;;14.16;95.39;100768.97;5570394;32;34392;-55
2023/05/12 12:57:18;;;;;;;7.43;6.45;;;;;;;14.43;100.00;100773.66;5570389;32;33645;-57
2023/05/12 13:00:22;;;;;;;8.73;6.75;;;;;;;14.36;94.00;100768.63;5570326;32;33642;-56
2023/05/12 13:03:24;;;;;;;9.05;6.87;;;;;;;14.37;100.00;100772.13;5570246;32;34373;-56
2023/05/12 13:06:28;;;;;;;8.60;7.07;;;;;;;14.34;94.94;100766.25;5570183;32;34321;-56
2023/05/12 13:09:30;;;;;;;8.45;7.10;;;;;;;14.24;100.00;100768.31;5570042;32;33791;-56
2023/05/12 13:12:33;;;;;;;9.13;7.50;;;;;;;14.29;100.00;100770.91;5570192;32;34275;-56
2023/05/12 13:15:35;;;;;;;10.52;6.78;;;;;;;14.25;100.00;100765.31;5569936;32;34364;-56
2023/05/12 13:18:38;;;;;;;9.90;7.03;;;;;;;14.29;97.12;100766.31;5569960;32;34015;-56
2023/05/12 13:21:40;;;;;;;8.95;6.55;;;;;;;14.34;98.46;100773.56;5570214;32;34401;-56
2023/05/12 13:24:43;;;;;;;11.10;6.40;;;;;;;14.17;96.09;100763.31;5570282;32;34368;-56
2023/05/12 13:27:45;;;;;;;7.97;6.65;;;;;;;14.13;95.83;100769.56;5570116;32;34423;-57
2023/05/12 13:30:48;;;;;;;8.77;6.78;;;;;;;14.08;96.44;100767.75;5569996;32;33646;-56
2023/05/12 13:33:50;;;;;;;8.30;6.87;;;;;;;14.17;100.00;100774.09;5569890;32;34486;-57
2023/05/12 13:36:53;;;;;;;10.13;6.62;;;;;;;14.05;97.62;100771.03;5569950;32;33631;-56
2023/05/12 13:39:55;;;;;;;11.38;6.75;;;;;;;14.09;96.28;100769.34;5569349;32;33715;-56
2023/05/12 13:42:57;;;;;;;8.77;7.07;;;;;;;14.00;98.64;100768.41;5569139;31;34542;-57
2023/05/12 13:45:59;;;;;;;7.95;6.28;;;;;;;14.11;100.00;100772.56;5569805;32;34314;-56
2023/05/12 13:49:02;;;;;;;12.90;6.93;;;;;;;14.09;95.16;100772.84;5570143;32;33719;-56
2023/05/12 13:52:05;;;;;;;8.77;6.60;;;;;;;14.08;95.50;100773.16;5569506;32;33616;-56
2023/05/12 13:55:08;;;;;;;8.10;6.28;;;;;;;14.13;98.34;100762.28;5569689;32;34359;-57
2023/05/12 13:58:10;;;;;;;8.73;7.32;;;;;;;14.28;100.00;100774.72;5573415;31;34307;-56
2023/05/12 14:01:13;;;;;;;7.37;6.03;;;;;;;14.17;96.38;100767.88;5581414;31;33568;-57
2023/05/12 14:04:16;;;;;;;8.82;6.50;;;;;;;14.08;95.20;100771.25;5570422;31;33296;-56
2023/05/12 14:07:19;;;;;;;8.77;6.65;;;;;;;14.12;94.54;100773.38;5570351;31;34059;-57
2023/05/12 14:10:21;;;;;;;8.57;6.78;;;;;;;13.99;92.66;100772.22;5587988;31;33593;-56
2023/05/12 14:13:25;;;;;;;12.70;7.12;;;;;;;14.09;99.08;100791.72;5588324;31;34295;-56
2023/05/12 14:16:27;;;;;;;11.63;7.93;;;;;;;14.13;95.01;100781.16;5588810;31;33762;-57
2023/05/12 14:19:29;;;;;;;14.13;7.03;;;;;;;14.18;100.00;100785.69;5589091;31;33823;-57
2023/05/12 14:22:32;;;;;;;9.27;6.78;;;;;;;14.06;96.37;100783.44;5589259;31;34357;-57
2023/05/12 14:25:34;;;;;;;9.02;7.60;;;;;;;14.01;100.00;100783.50;5588905;31;34419;-56
2023/05/12 14:28:37;;;;;;;9.90;7.15;;;;;;;13.94;99.30;100789.28;5588960;31;34376;-57
2023/05/12 14:31:40;;;;;;;7.87;7.07;;;;;;;13.98;96.61;100792.97;5589183;31;33631;-57
2023/05/12 14:34:42;;;;;;;8.38;6.93;;;;;;;13.95;98.67;100798.97;5588943;31;33729;-57
2023/05/12 14:37:44;;;;;;;8.82;6.53;;;;;;;14.07;100.00;100801.19;5588888;31;34182;-56
2023/05/12 14:40:48;;;;;;;10.73;7.30;;;;;;;14.09;100.00;100816.00;5585087;31;34308;-57
2023/05/12 14:43:50;;;;;;;10.80;6.75;;;;;;;14.10;100.00;100812.22;5568782;32;33469;-56
2023/05/12 14:46:52;;;;;;;9.68;7.03;;;;;;;14.03;98.01;100817.16;5570043;31;34291;-57
2023/05/12 14:49:54;;;;;;;8.93;7.05;;;;;;;14.03;95.60;100819.84;5569665;32;33291;-56
2023/05/12 14:52:57;;;;;;;10.48;6.70;;;;;;;14.14;93.79;100822.38;5568303;32;34463;-58
2023/05/12 14:55:59;;;;;;;9.65;7.57;;;;;;;14.06;94.46;100821.16;5568687;32;34402;-56
2023/05/12 14:59:02;;;;;;;8.82;7.05;;;;;;;13.91;98.52;100824.06;5569225;32;33625;-57
2023/05/12 15:02:05;;;;;;;8.63;6.85;;;;;;;13.84;98.97;100827.13;5569288;32;33768;-54
2023/05/12 15:05:08;;;;;;;9.82;7.70;;;;;;;13.93;96.60;100825.38;5568400;32;33768;-55
2023/05/12 15:08:12;;;;;;;9.27;8.23;;;;;;;14.12;95.40;100827.28;5568886;32;34277;-55
2023/05/12 15:11:14;;;;;;;9.93;7.80;;;;;;;14.03;100.00;100825.25;5568803;32;33784;-55
2023/05/12 15:14:17;;;;;;;9.20;7.60;;;;;;;14.08;100.00;100830.56;5569059;32;33874;-55
2023/05/12 15:17:19;;;;;;;11.07;6.97;;;;;;;14.08;97.56;100827.88;5568394;32;33903;-55
